Time;durP1;ratioP1;P1;durP2;ratioP2;P2;SDS_P1;SDS_P2;PMS_P1;PMS_P2;Temp;Humidity;BMP_temperature;BMP_pressure;BME280_temperature;BME280_humidity;BME280_pressure;Samples;Min_cycle;Max_cycle;Signal;HPM_P1;HPM_P2
2022/03/12 00:00:48;;;;;;;18.52;9.85;;;;;;;-1.28;100.00;101421.78;5034612;28;20057;-70
2022/03/12 00:03:14;;;;;;;13.20;7.82;;;;;;;-1.59;100.00;101381.38;5034730;28;20049;-70
2022/03/12 00:05:52;;;;;;;10.93;6.55;;;;;;;-1.53;100.00;101446.44;5035162;28;20507;-70
2022/03/12 00:08:21;;;;;;;11.88;6.88;;;;;;;-1.81;100.00;101430.28;5034929;28;20088;-69
2022/03/12 00:10:49;;;;;;;9.65;6.13;;;;;;;-2.07;100.00;101400.84;5016674;28;20060;-70
2022/03/12 00:13:14;;;;;;;13.40;8.70;;;;;;;-1.95;100.00;101408.88;5034589;28;20442;-70
2022/03/12 00:15:40;;;;;;;31.83;16.73;;;;;;;-1.69;100.00;101426.59;5016947;28;20040;-70
2022/03/12 00:18:11;;;;;;;19.50;11.50;;;;;;;-2.14;100.00;101400.50;5034601;28;20124;-70
2022/03/12 00:20:36;;;;;;;11.77;7.00;;;;;;;-2.26;100.00;101402.44;5034424;28;20077;-71
2022/03/12 00:23:05;;;;;;;11.82;7.30;;;;;;;-1.90;100.00;101404.94;5034519;28;20025;-69
2022/03/12 00:25:31;;;;;;;12.60;7.57;;;;;;;-2.02;100.00;101411.03;5034125;28;20068;-70
2022/03/12 00:27:57;;;;;;;15.02;9.32;;;;;;;-1.87;100.00;101405.09;5033287;28;20057;-70
2022/03/12 00:30:24;;;;;;;13.75;8.48;;;;;;;-1.80;100.00;101406.19;5034476;28;20033;-70
2022/03/12 00:32:52;;;;;;;14.55;8.15;;;;;;;-2.39;100.00;101396.00;5034323;28;20490;-70
2022/03/12 00:35:18;;;;;;;15.68;9.32;;;;;;;-2.19;100.00;101427.66;5034330;28;20025;-70
2022/03/12 00:37:44;;;;;;;13.45;7.93;;;;;;;-1.66;100.00;101434.25;5034337;28;20492;-71
2022/03/12 00:40:11;;;;;;;12.70;6.50;;;;;;;-2.31;100.00;101376.44;5034284;28;20044;-70
2022/03/12 00:42:36;;;;;;;10.45;6.28;;;;;;;-2.40;100.00;101391.84;5016582;28;20048;-69
2022/03/12 00:45:02;;;;;;;9.95;6.40;;;;;;;-2.59;100.00;101409.16;5034458;28;20037;-70
2022/03/12 00:47:28;;;;;;;8.40;5.95;;;;;;;-2.40;100.00;101430.81;5033760;28;20127;-70
2022/03/12 00:49:54;;;;;;;11.57;5.82;;;;;;;-2.21;100.00;101404.34;5034229;28;20108;-71
2022/03/12 00:52:21;;;;;;;9.60;5.68;;;;;;;-2.29;100.00;101442.09;5016264;28;20044;-70
2022/03/12 00:54:47;;;;;;;11.18;6.40;;;;;;;-2.27;100.00;101438.91;5033687;28;20030;-70
2022/03/12 00:57:13;;;;;;;10.45;5.70;;;;;;;-2.12;100.00;101424.66;5034070;28;20483;-70
2022/03/12 00:59:39;;;;;;;9.20;5.65;;;;;;;-2.54;100.00;101402.78;5033994;28;20476;-71
2022/03/12 01:02:05;;;;;;;9.27;5.30;;;;;;;-2.51;100.00;101400.41;5048896;23;20057;-70
2022/03/12 01:04:31;;;;;;;8.45;5.43;;;;;;;-2.00;100.00;101425.22;4350899;28;10000724;-70
2022/03/12 01:06:56;;;;;;;9.27;5.55;;;;;;;-1.97;100.00;101424.53;5033553;28;20040;-70
2022/03/12 01:09:22;;;;;;;11.07;4.82;;;;;;;-2.17;100.00;101398.72;5033732;28;20022;-70
2022/03/12 01:11:47;;;;;;;8.30;5.15;;;;;;;-2.22;100.00;101405.09;5033770;28;20026;-70
2022/03/12 01:14:13;;;;;;;8.18;5.32;;;;;;;-2.90;100.00;101394.41;5033548;28;20029;-70
2022/03/12 01:16:38;;;;;;;11.25;5.90;;;;;;;-2.46;100.00;101425.53;5015963;28;20029;-70
2022/03/12 01:19:04;;;;;;;8.57;5.75;;;;;;;-2.42;100.00;101395.88;5033383;28;20033;-69
2022/03/12 01:21:29;;;;;;;10.65;5.88;;;;;;;-3.05;100.00;101397.78;5015520;28;20030;-70
2022/03/12 01:23:55;;;;;;;7.97;5.25;;;;;;;-2.92;100.00;101419.97;5033670;28;20025;-70
2022/03/12 01:26:22;;;;;;;9.80;5.57;;;;;;;-2.93;100.00;101423.25;5016235;28;20040;-70
2022/03/12 01:28:49;;;;;;;9.38;5.45;;;;;;;-2.42;100.00;101424.91;5033271;28;20093;-70
2022/03/12 01:31:15;;;;;;;11.15;5.88;;;;;;;-2.84;100.00;101418.72;5033473;28;20057;-70
2022/03/12 01:33:41;;;;;;;11.10;5.85;;;;;;;-2.94;100.00;101419.91;5033354;28;20037;-69
2022/03/12 01:36:07;;;;;;;10.50;5.95;;;;;;;-2.70;100.00;101416.13;5032936;28;20104;-70
2022/03/12 01:38:46;;;;;;;8.75;5.43;;;;;;;-3.15;100.00;101378.22;5033188;28;20418;-70
2022/03/12 01:41:13;;;;;;;9.20;5.28;;;;;;;-3.31;100.00;101408.06;5015566;28;20032;-70
2022/03/12 01:43:42;;;;;;;9.32;5.53;;;;;;;-2.88;100.00;101394.47;5032937;28;20518;-70
2022/03/12 01:46:09;;;;;;;9.15;5.47;;;;;;;-3.23;100.00;101411.78;5033201;28;20025;-70
2022/03/12 01:48:35;;;;;;;7.70;5.05;;;;;;;-3.32;100.00;101393.91;5033083;28;20029;-70
2022/03/12 01:51:00;;;;;;;8.13;5.25;;;;;;;-2.91;100.00;101417.56;5033202;28;20462;-70
2022/03/12 01:53:26;;;;;;;8.65;5.32;;;;;;;-2.92;100.00;101410.03;5015015;28;20116;-70
2022/03/12 01:55:53;;;;;;;8.57;5.40;;;;;;;-2.89;100.00;101395.25;5015058;28;20147;-70
2022/03/12 01:58:19;;;;;;;11.27;5.70;;;;;;;-2.52;100.00;101401.22;5033064;28;20042;-69
2022/03/12 02:00:48;;;;;;;7.28;5.03;;;;;;;-2.99;100.00;101393.94;5014692;28;20032;-69
2022/03/12 02:03:16;;;;;;;11.30;7.00;;;;;;;-2.34;100.00;101381.31;5014826;28;20056;-70
2022/03/12 02:05:43;;;;;;;12.77;7.32;;;;;;;-3.82;100.00;101392.19;5032612;28;20017;-70
2022/03/12 02:08:13;;;;;;;12.98;7.20;;;;;;;-3.72;100.00;101423.31;5032515;28;20385;-70
2022/03/12 02:10:41;;;;;;;11.73;6.97;;;;;;;-3.21;100.00;101392.84;5014924;28;20025;-71
2022/03/12 02:13:06;;;;;;;12.15;6.40;;;;;;;-3.48;100.00;101413.78;5032458;28;20026;-69
2022/03/12 02:15:32;;;;;;;11.50;6.68;;;;;;;-3.23;100.00;101412.66;5032421;28;20033;-70
2022/03/12 02:17:57;;;;;;;10.27;6.68;;;;;;;-3.08;100.00;101418.38;5036527;28;20028;-70
2022/03/12 02:20:23;;;;;;;12.20;7.03;;;;;;;-3.66;100.00;101359.91;5052457;28;20029;-70
2022/03/12 02:22:55;;;;;;;12.68;7.57;;;;;;;-2.86;100.00;101408.69;5051983;28;20039;-70
2022/03/12 02:25:29;;;;;;;15.23;8.68;;;;;;;-3.01;100.00;101431.97;5052334;28;20025;-70
2022/03/12 02:27:56;;;;;;;18.35;9.48;;;;;;;-3.18;100.00;101422.81;5034727;28;20025;-70
2022/03/12 02:30:26;;;;;;;13.98;8.88;;;;;;;-3.23;100.00;101399.38;5052688;28;20025;-70
2022/03/12 02:32:54;;;;;;;13.23;7.47;;;;;;;-3.27;100.00;101420.72;5051941;28;20048;-70
2022/03/12 02:35:24;;;;;;;13.52;7.05;;;;;;;-2.78;100.00;101409.94;5052417;28;20609;-70
2022/03/12 02:37:52;;;;;;;12.93;7.28;;;;;;;-3.02;100.00;101401.28;5052508;28;20079;-70
2022/03/12 02:40:19;;;;;;;11.85;6.60;;;;;;;-2.85;100.00;101410.41;5052137;28;20526;-70
2022/03/12 02:42:46;;;;;;;11.63;7.38;;;;;;;-2.77;100.00;101405.78;5051882;28;20124;-70
2022/03/12 02:45:11;;;;;;;14.95;7.75;;;;;;;-2.75;100.00;101412.56;5052026;28;20025;-70
2022/03/12 02:47:40;;;;;;;13.77;7.82;;;;;;;-2.90;100.00;101415.94;5052052;28;20036;-71
2022/03/12 02:50:09;;;;;;;27.23;16.10;;;;;;;-2.81;100.00;101387.38;5052255;28;20028;-71
2022/03/12 02:52:41;;;;;;;26.50;15.35;;;;;;;-2.62;100.00;101421.47;5051685;28;20082;-70
2022/03/12 02:55:21;;;;;;;25.98;15.23;;;;;;;-2.60;100.00;101419.91;5033872;28;20415;-70
2022/03/12 02:57:49;;;;;;;21.83;13.27;;;;;;;-2.73;100.00;101415.09;5051782;28;20108;-70
2022/03/12 03:00:16;;;;;;;19.77;11.30;;;;;;;-2.75;100.00;101414.16;5051741;28;20490;-69
2022/03/12 03:02:46;;;;;;;17.10;10.70;;;;;;;-3.11;100.00;101428.16;5051995;28;20045;-71
2022/03/12 03:05:20;;;;;;;20.02;10.82;;;;;;;-2.68;100.00;101422.03;5051749;28;20509;-70
2022/03/12 03:07:46;;;;;;;23.30;11.90;;;;;;;-3.34;100.00;101421.19;5051280;28;20036;-70
2022/03/12 03:10:33;;;;;;;25.92;11.10;;;;;;;-2.50;100.00;101419.56;5051317;28;20398;-70
2022/03/12 03:12:59;;;;;;;26.58;11.90;;;;;;;-2.95;100.00;101380.06;5030097;28;20120;-70
2022/03/12 03:15:25;;;;;;;17.08;11.82;;;;;;;-2.72;100.00;101394.44;5031421;28;20119;-71
2022/03/12 03:17:51;;;;;;;20.48;13.32;;;;;;;-2.54;100.00;101412.72;5031738;28;20033;-69
2022/03/12 03:20:17;;;;;;;22.65;14.27;;;;;;;-3.11;100.00;101399.97;5031185;28;20029;-71
2022/03/12 03:22:42;;;;;;;18.42;11.73;;;;;;;-2.85;100.00;101383.03;5031304;28;20036;-71
2022/03/12 03:25:08;;;;;;;16.17;10.52;;;;;;;-2.96;100.00;101380.81;5013990;28;20076;-72
2022/03/12 03:27:34;;;;;;;14.40;9.60;;;;;;;-2.94;100.00;101427.38;5031302;28;20538;-70
2022/03/12 03:29:59;;;;;;;16.13;10.30;;;;;;;-2.78;100.00;101407.44;5014109;28;20120;-70
2022/03/12 03:32:25;;;;;;;15.18;10.30;;;;;;;-3.11;100.00;101356.06;5031335;28;20125;-71
2022/03/12 03:34:50;;;;;;;25.17;14.52;;;;;;;-2.84;100.00;101424.56;5030231;28;20105;-71
2022/03/12 03:37:16;;;;;;;28.70;16.70;;;;;;;-3.22;100.00;101384.50;5048993;28;20043;-71
2022/03/12 03:39:41;;;;;;;23.13;14.95;;;;;;;-2.66;100.00;101390.63;5051512;28;20449;-71
2022/03/12 03:42:07;;;;;;;22.55;13.07;;;;;;;-3.17;100.00;101398.00;5051110;28;20127;-70
2022/03/12 03:44:32;;;;;;;23.83;13.45;;;;;;;-3.17;100.00;101422.03;5050999;28;20469;-70
2022/03/12 03:46:58;;;;;;;20.45;12.75;;;;;;;-2.67;100.00;101416.25;5051276;28;20033;-70
2022/03/12 03:49:25;;;;;;;16.85;10.55;;;;;;;-2.95;100.00;101385.03;5050649;28;20082;-71
2022/03/12 03:51:51;;;;;;;17.25;10.60;;;;;;;-2.66;100.00;101419.63;5050998;28;20041;-70
2022/03/12 03:54:17;;;;;;;18.90;11.50;;;;;;;-2.26;100.00;101418.22;5051200;28;20032;-71
2022/03/12 03:56:43;;;;;;;28.55;16.10;;;;;;;-2.37;100.00;101394.44;5051143;28;20033;-70
2022/03/12 03:59:09;;;;;;;28.17;18.20;;;;;;;-2.06;100.00;101417.47;5050907;28;20167;-70
2022/03/12 04:01:40;;;;;;;37.58;25.63;;;;;;;-2.35;100.00;101392.88;5050755;28;20483;-70
2022/03/12 04:04:06;;;;;;;27.25;18.15;;;;;;;-2.70;100.00;101415.25;5050497;28;20025;-70
2022/03/12 04:06:31;;;;;;;19.35;11.68;;;;;;;-2.31;100.00;101422.13;5050975;28;20021;-71
2022/03/12 04:08:57;;;;;;;18.15;10.48;;;;;;;-2.59;100.00;101391.72;5050815;28;20033;-70
2022/03/12 04:11:24;;;;;;;18.17;10.82;;;;;;;-2.41;100.00;101412.50;5051140;28;20024;-71
2022/03/12 04:13:52;;;;;;;17.25;9.77;;;;;;;-2.85;100.00;101407.03;5050839;28;20075;-70
2022/03/12 04:16:19;;;;;;;19.13;10.80;;;;;;;-2.88;100.00;101411.88;5050753;28;20040;-69
2022/03/12 04:18:46;;;;;;;17.35;11.70;;;;;;;-2.88;100.00;101435.13;5050258;28;20041;-70
2022/03/12 04:21:13;;;;;;;27.15;14.70;;;;;;;-2.90;100.00;101431.72;5050883;28;20021;-71
2022/03/12 04:23:40;;;;;;;20.45;14.00;;;;;;;-3.16;100.00;101418.75;5050718;28;20028;-69
2022/03/12 04:26:05;;;;;;;16.90;10.95;;;;;;;-2.89;100.00;101444.97;5032920;28;20453;-69
2022/03/12 04:28:33;;;;;;;15.48;10.02;;;;;;;-3.15;100.00;101423.81;5051044;28;20032;-70
2022/03/12 04:31:03;;;;;;;13.95;7.88;;;;;;;-3.06;100.00;101420.94;5050570;28;20082;-70
2022/03/12 04:33:30;;;;;;;10.63;7.60;;;;;;;-2.84;100.00;101423.69;5050580;28;20044;-71
2022/03/12 04:35:56;;;;;;;11.48;8.07;;;;;;;-3.34;100.00;101421.19;5050795;28;20135;-70
2022/03/12 04:38:23;;;;;;;12.98;7.75;;;;;;;-3.27;100.00;101429.81;5050732;28;20036;-71
2022/03/12 04:40:48;;;;;;;14.23;8.35;;;;;;;-3.11;100.00;101455.50;5050599;28;20044;-70
2022/03/12 04:43:15;;;;;;;11.52;7.28;;;;;;;-2.95;100.00;101452.16;5050592;28;20021;-71
2022/03/12 04:45:45;;;;;;;12.00;7.47;;;;;;;-2.88;100.00;101452.53;5034220;28;20106;-71
2022/03/12 04:48:16;;;;;;;13.73;7.40;;;;;;;-2.90;100.00;101430.84;5054309;28;20052;-70
2022/03/12 04:50:42;;;;;;;16.75;7.60;;;;;;;-2.27;100.00;101461.31;5054238;28;20025;-70
2022/03/12 04:53:08;;;;;;;32.50;18.95;;;;;;;-2.64;100.00;101475.28;5053886;28;20072;-70
2022/03/12 04:55:36;;;;;;;36.63;21.98;;;;;;;-2.83;100.00;101457.72;5054558;28;20033;-70
2022/03/12 04:58:01;;;;;;;49.75;21.60;;;;;;;-3.43;100.00;101444.72;5054182;28;20512;-69
2022/03/12 05:00:31;;;;;;;77.95;35.13;;;;;;;-3.03;100.00;101480.78;5036036;28;20120;-71
2022/03/12 05:03:11;;;;;;;35.78;17.98;;;;;;;-2.79;100.00;101472.88;5054370;28;20131;-70
2022/03/12 05:05:41;;;;;;;21.42;12.35;;;;;;;-2.41;100.00;101476.38;5053822;28;20082;-70
2022/03/12 05:08:15;;;;;;;22.15;12.88;;;;;;;-2.59;100.00;101488.78;5036362;28;20033;-70
2022/03/12 05:10:41;;;;;;;49.20;24.52;;;;;;;-2.31;100.00;101479.38;5053177;28;20029;-70
2022/03/12 05:13:06;;;;;;;74.00;36.60;;;;;;;-2.66;100.00;101460.28;5053784;28;20082;-71
2022/03/12 05:15:38;;;;;;;43.78;25.02;;;;;;;-2.42;100.00;101444.81;5053636;28;20041;-70
2022/03/12 05:18:12;;;;;;;49.35;28.33;;;;;;;-2.05;100.00;101474.00;5053738;28;20510;-70
2022/03/12 05:20:43;;;;;;;32.28;19.42;;;;;;;-1.76;100.00;101453.75;5035651;28;20073;-70
2022/03/12 05:23:10;;;;;;;28.40;17.95;;;;;;;-0.96;100.00;101483.88;5053397;28;20039;-65
2022/03/12 05:25:41;;;;;;;14.50;9.20;;;;;;;-1.29;100.00;101465.84;5054043;28;20419;-71
2022/03/12 05:28:15;;;;;;;14.10;8.13;;;;;;;-0.58;95.68;101471.34;5036258;28;20036;-70
2022/03/12 05:30:42;;;;;;;11.20;7.10;;;;;;;0.71;86.69;101477.16;5053397;28;20833;-70
2022/03/12 05:33:08;;;;;;;11.27;6.40;;;;;;;0.29;82.36;101483.09;5035832;28;20070;-69
2022/03/12 05:35:33;;;;;;;11.65;7.10;;;;;;;0.10;77.59;101445.69;5053393;28;20483;-70
2022/03/12 05:37:59;;;;;;;11.18;7.13;;;;;;;0.10;80.55;101461.53;5052867;28;20144;-69
2022/03/12 05:40:26;;;;;;;12.80;7.20;;;;;;;-0.23;84.43;101462.75;5035477;28;20043;-70
2022/03/12 05:42:55;;;;;;;13.40;7.47;;;;;;;-0.40;84.84;101457.09;5035489;28;20067;-71
2022/03/12 05:45:22;;;;;;;11.07;7.07;;;;;;;-0.94;89.62;101489.78;5035402;28;20482;-70
2022/03/12 05:47:49;;;;;;;12.77;8.07;;;;;;;-1.00;94.57;101484.53;5052877;28;20029;-70
2022/03/12 05:50:15;;;;;;;13.30;7.32;;;;;;;-1.11;91.71;101478.25;5034556;28;20079;-69
2022/03/12 05:52:47;;;;;;;11.70;8.18;;;;;;;-0.86;92.37;101483.47;5035000;28;20372;-69
2022/03/12 05:55:14;;;;;;;11.95;7.57;;;;;;;-0.66;90.36;101495.13;5052745;28;20115;-70
2022/03/12 05:57:39;;;;;;;13.07;8.93;;;;;;;-0.25;90.33;101485.16;5051767;28;20451;-70
2022/03/12 06:00:11;;;;;;;13.35;8.50;;;;;;;-0.52;88.45;101423.28;5052465;28;20025;-69
2022/03/12 06:02:48;;;;;;;13.35;8.98;;;;;;;-0.69;88.86;101472.53;5052230;28;20557;-69
2022/03/12 06:05:14;;;;;;;15.63;10.05;;;;;;;-0.95;90.64;101453.13;5052580;28;20037;-68
2022/03/12 06:07:45;;;;;;;13.80;9.90;;;;;;;-0.18;90.73;101487.09;5034587;28;20474;-70
2022/03/12 06:10:14;;;;;;;17.75;9.45;;;;;;;-0.98;87.81;101467.97;5052340;28;20499;-69
2022/03/12 06:12:43;;;;;;;13.95;9.40;;;;;;;-0.95;85.51;101463.97;5052859;28;20418;-70
2022/03/12 06:15:14;;;;;;;14.05;9.10;;;;;;;-0.61;81.90;101493.66;5052221;28;20040;-69
2022/03/12 06:17:39;;;;;;;13.10;8.20;;;;;;;-0.42;79.90;101498.66;5052170;28;20039;-69
2022/03/12 06:20:10;;;;;;;12.88;7.35;;;;;;;0.12;75.66;101499.09;5052623;28;20025;-70
2022/03/12 06:22:37;;;;;;;14.25;7.80;;;;;;;-0.44;76.05;101512.72;5034374;28;20110;-70
2022/03/12 06:25:04;;;;;;;16.08;10.02;;;;;;;-0.71;78.24;101508.22;5052154;28;20036;-70
2022/03/12 06:27:29;;;;;;;21.83;11.27;;;;;;;-0.67;77.91;101470.94;5052396;28;20032;-70
2022/03/12 06:29:56;;;;;;;12.63;8.02;;;;;;;-0.28;76.90;101470.03;5051523;28;20434;-69
2022/03/12 06:32:22;;;;;;;11.18;8.00;;;;;;;-0.27;75.31;101491.75;5052217;28;20029;-70
2022/03/12 06:34:48;;;;;;;12.98;9.27;;;;;;;0.55;75.42;101523.28;5052216;28;20033;-69
2022/03/12 06:37:13;;;;;;;15.48;8.57;;;;;;;-0.18;73.83;101507.09;5051906;28;20037;-70
2022/03/12 06:39:39;;;;;;;10.20;6.47;;;;;;;1.06;71.80;101521.78;5052104;28;20066;-70
2022/03/12 06:42:04;;;;;;;10.50;7.05;;;;;;;0.88;68.13;101509.50;5051871;28;20490;-70
2022/03/12 06:44:34;;;;;;;14.10;9.02;;;;;;;0.63;69.57;101506.91;5033642;28;20060;-70
2022/03/12 06:47:01;;;;;;;11.25;7.15;;;;;;;0.85;69.00;101521.03;5052047;28;20055;-71
2022/03/12 06:49:27;;;;;;;23.50;14.90;;;;;;;1.56;68.32;101501.81;5051621;28;20021;-70
2022/03/12 06:51:53;;;;;;;18.30;10.98;;;;;;;2.06;65.48;101527.66;5051669;28;20017;-70
2022/03/12 06:54:19;;;;;;;10.00;7.03;;;;;;;0.58;68.17;101505.88;5051447;28;20556;-70
2022/03/12 06:56:45;;;;;;;16.52;10.27;;;;;;;1.03;68.33;101503.31;5051694;28;20029;-70
2022/03/12 06:59:11;;;;;;;9.57;6.10;;;;;;;1.07;65.70;101530.16;5051357;28;20029;-71
2022/03/12 07:01:37;;;;;;;9.23;6.53;;;;;;;1.61;64.78;101537.91;5051542;28;20037;-70
2022/03/12 07:04:02;;;;;;;10.88;6.45;;;;;;;0.79;65.10;101544.19;5051386;28;20489;-69
2022/03/12 07:06:28;;;;;;;9.43;6.63;;;;;;;1.08;64.38;101515.19;5051469;28;20021;-68
2022/03/12 07:08:53;;;;;;;13.27;6.97;;;;;;;0.93;63.93;101558.84;5049871;28;20032;-70
2022/03/12 07:11:20;;;;;;;13.23;7.60;;;;;;;2.55;62.34;101539.22;5051194;28;20037;-71
2022/03/12 07:13:46;;;;;;;12.50;8.75;;;;;;;1.38;61.29;101533.78;5051272;28;20025;-71
2022/03/12 07:16:11;;;;;;;13.07;7.38;;;;;;;0.88;60.52;101503.63;5051522;28;20120;-71
2022/03/12 07:18:38;;;;;;;15.23;7.90;;;;;;;1.01;62.70;101528.28;5050840;28;20048;-69
2022/03/12 07:21:06;;;;;;;10.65;5.72;;;;;;;0.36;61.76;101550.03;5033432;28;20028;-71
2022/03/12 07:23:31;;;;;;;10.27;6.40;;;;;;;0.53;63.21;101541.53;5050743;28;20032;-68
2022/03/12 07:25:57;;;;;;;10.52;6.13;;;;;;;0.27;64.59;101548.03;5050822;28;20029;-70
2022/03/12 07:28:22;;;;;;;9.35;6.63;;;;;;;0.16;66.69;101541.75;5050739;28;20135;-71
2022/03/12 07:30:48;;;;;;;16.77;7.70;;;;;;;0.35;67.46;101538.31;5051217;28;20509;-71
2022/03/12 07:33:13;;;;;;;14.20;7.72;;;;;;;0.23;65.08;101493.72;5051180;28;20041;-70
2022/03/12 07:35:39;;;;;;;12.88;7.35;;;;;;;0.57;66.26;101534.19;5050883;28;20036;-69
2022/03/12 07:38:04;;;;;;;13.93;8.10;;;;;;;-0.01;67.98;101552.75;5050603;28;20025;-72
2022/03/12 07:40:30;;;;;;;10.90;6.57;;;;;;;-0.25;67.41;101521.78;5050564;28;20029;-69
2022/03/12 07:42:56;;;;;;;11.48;7.75;;;;;;;0.14;67.99;101552.50;5050650;28;20119;-70
2022/03/12 07:45:21;;;;;;;10.63;6.80;;;;;;;0.28;65.97;101552.22;5050664;28;20032;-70
2022/03/12 07:47:47;;;;;;;10.57;5.93;;;;;;;-0.53;65.72;101497.34;5050684;28;20033;-69
2022/03/12 07:50:13;;;;;;;11.02;6.47;;;;;;;-0.09;65.28;101512.47;5050847;28;20029;-72
2022/03/12 07:52:39;;;;;;;11.75;7.47;;;;;;;0.19;66.38;101551.88;5050737;28;20059;-69
2022/03/12 07:55:09;;;;;;;12.23;6.50;;;;;;;0.21;65.02;101520.31;5050423;28;20060;-70
2022/03/12 07:57:36;;;;;;;11.65;7.15;;;;;;;0.54;65.32;101555.72;5050509;28;20029;-69
2022/03/12 08:00:07;;;;;;;13.38;8.93;;;;;;;0.28;65.24;101563.91;5050542;28;20106;-70
2022/03/12 08:02:32;;;;;;;11.52;7.32;;;;;;;0.18;64.82;101546.84;5050338;28;20057;-69
2022/03/12 08:04:58;;;;;;;10.82;6.60;;;;;;;0.34;63.32;101552.47;5050261;28;20040;-68
2022/03/12 08:07:24;;;;;;;8.80;6.30;;;;;;;-0.14;64.37;101536.41;5050132;28;20049;-68
2022/03/12 08:09:55;;;;;;;12.07;6.93;;;;;;;0.62;65.23;101555.22;5049591;28;20021;-65
2022/03/12 08:12:24;;;;;;;12.40;6.97;;;;;;;0.33;65.24;101562.41;5050113;28;20148;-66
2022/03/12 08:14:50;;;;;;;15.60;8.25;;;;;;;0.23;64.15;101532.84;5050194;28;20033;-64
2022/03/12 08:17:19;;;;;;;11.35;6.95;;;;;;;0.64;65.22;101523.59;5050278;28;20025;-68
2022/03/12 08:19:44;;;;;;;21.83;10.52;;;;;;;0.69;65.00;101532.13;5050617;28;20048;-68
2022/03/12 08:22:10;;;;;;;13.75;7.70;;;;;;;0.78;64.54;101577.53;5053637;28;20036;-68
2022/03/12 08:24:36;;;;;;;47.97;23.17;;;;;;;0.74;64.93;101534.81;5053703;28;20031;-68
2022/03/12 08:27:01;;;;;;;15.95;8.43;;;;;;;0.97;64.53;101565.69;5054198;28;20117;-68
2022/03/12 08:29:27;;;;;;;30.42;16.13;;;;;;;1.16;65.76;101548.88;5053717;28;20139;-68
2022/03/12 08:31:52;;;;;;;64.20;26.88;;;;;;;1.07;68.39;101568.53;5053732;28;20055;-68
2022/03/12 08:34:18;;;;;;;60.72;22.42;;;;;;;0.92;70.06;101574.66;5054033;28;20028;-68
2022/03/12 08:36:44;;;;;;;29.98;14.27;;;;;;;0.63;69.91;101566.97;5035756;28;20493;-68
2022/03/12 08:39:11;;;;;;;109.85;32.15;;;;;;;0.78;69.87;101577.53;5053488;28;20487;-69
2022/03/12 08:41:38;;;;;;;135.85;36.47;;;;;;;0.70;69.93;101581.38;5053600;28;20132;-68
2022/03/12 08:44:06;;;;;;;80.68;23.90;;;;;;;1.05;71.01;101560.13;5053494;28;20055;-69
2022/03/12 08:46:31;;;;;;;12.63;8.00;;;;;;;0.58;67.97;101577.56;5053880;28;20029;-70
2022/03/12 08:48:57;;;;;;;33.10;16.42;;;;;;;0.44;68.14;101537.03;5053540;28;20086;-69
2022/03/12 08:51:22;;;;;;;88.22;39.45;;;;;;;0.33;68.75;101584.94;5053129;28;20029;-65
2022/03/12 08:53:48;;;;;;;19.67;12.65;;;;;;;0.76;68.83;101565.75;5052614;28;20029;-68
2022/03/12 08:56:13;;;;;;;20.90;11.93;;;;;;;0.37;70.82;101589.25;5053241;28;20033;-67
2022/03/12 08:58:41;;;;;;;14.23;9.27;;;;;;;0.31;72.21;101589.88;5053147;28;20056;-66
2022/03/12 09:01:08;;;;;;;11.38;7.00;;;;;;;0.23;70.67;101580.34;5051367;28;20021;-66
2022/03/12 09:03:34;;;;;;;21.85;14.85;;;;;;;0.26;72.23;101555.50;5052292;28;20113;-66
2022/03/12 09:05:59;;;;;;;31.27;15.98;;;;;;;0.30;72.11;101568.16;5052645;28;20119;-68
2022/03/12 09:08:25;;;;;;;17.63;10.57;;;;;;;0.26;73.38;101560.50;5052125;28;20044;-68
2022/03/12 09:10:51;;;;;;;15.52;9.18;;;;;;;0.38;72.17;101558.44;5052700;28;20037;-71
2022/03/12 09:13:18;;;;;;;14.38;8.77;;;;;;;0.02;71.19;101557.03;5051472;28;20040;-69
2022/03/12 09:15:44;;;;;;;17.05;10.00;;;;;;;0.76;70.25;101581.63;5052559;28;20422;-70
2022/03/12 09:18:10;;;;;;;14.98;9.30;;;;;;;0.57;68.46;101578.38;5052361;28;20037;-70
2022/03/12 09:20:47;;;;;;;16.00;8.80;;;;;;;0.59;69.66;101575.13;5052118;28;20021;-69
2022/03/12 09:23:21;;;;;;;17.55;10.88;;;;;;;0.71;68.60;101555.56;5052851;28;20029;-69
2022/03/12 09:25:49;;;;;;;16.13;7.60;;;;;;;2.70;99.89;101565.53;5053246;28;20029;-67
2022/03/12 09:28:16;;;;;;;11.23;6.18;;;;;;;1.74;72.94;101570.06;5052902;28;20098;-69
2022/03/12 09:30:42;;;;;;;15.48;9.25;;;;;;;1.02;68.71;101566.69;5052357;28;20140;-70
2022/03/12 09:33:08;;;;;;;21.52;11.45;;;;;;;1.00;65.76;101574.16;5051417;28;20067;-68
2022/03/12 09:35:34;;;;;;;28.08;15.50;;;;;;;1.28;64.38;101581.00;5052398;28;20040;-68
2022/03/12 09:38:01;;;;;;;37.97;17.67;;;;;;;1.05;64.68;101549.28;5052663;28;20406;-68
2022/03/12 09:40:29;;;;;;;20.23;10.50;;;;;;;1.50;63.16;101573.41;5052673;28;20032;-68
2022/03/12 09:42:54;;;;;;;53.30;22.10;;;;;;;1.42;63.90;101539.75;5052635;28;20036;-68
2022/03/12 09:45:22;;;;;;;19.02;10.68;;;;;;;1.64;65.78;101532.97;5052252;28;20127;-68
2022/03/12 09:47:48;;;;;;;30.27;15.00;;;;;;;1.82;65.53;101555.31;5052442;28;20061;-69
2022/03/12 09:50:14;;;;;;;29.98;13.63;;;;;;;1.57;64.79;101532.72;5034272;28;20028;-69
2022/03/12 09:52:40;;;;;;;19.55;10.18;;;;;;;1.18;63.13;101528.88;5052199;28;20029;-69
2022/03/12 09:55:07;;;;;;;37.83;18.17;;;;;;;1.76;62.14;101552.59;5034512;28;20411;-69
2022/03/12 09:57:34;;;;;;;55.15;24.70;;;;;;;1.59;62.51;101538.63;5052320;28;20032;-69
2022/03/12 10:00:00;;;;;;;56.63;38.08;;;;;;;2.13;61.71;101557.97;5052464;28;20029;-69
2022/03/12 10:02:26;;;;;;;13.20;9.30;;;;;;;1.91;60.21;101549.72;5051980;28;20080;-68
2022/03/12 10:04:53;;;;;;;13.60;9.10;;;;;;;1.45;60.57;101554.84;5052312;28;20055;-69
2022/03/12 10:07:18;;;;;;;25.55;16.20;;;;;;;1.68;61.33;101549.81;5051933;28;20025;-69
2022/03/12 10:09:44;;;;;;;17.05;11.95;;;;;;;1.45;58.77;101512.28;5052011;28;20056;-68
2022/03/12 10:12:10;;;;;;;16.38;11.18;;;;;;;1.96;60.57;101545.72;5052012;28;20037;-69
2022/03/12 10:14:35;;;;;;;11.82;8.40;;;;;;;1.65;59.12;101549.72;5051834;28;20033;-69
2022/03/12 10:17:02;;;;;;;17.58;11.57;;;;;;;1.52;59.15;101514.19;5051929;28;20033;-69
2022/03/12 10:19:30;;;;;;;16.90;11.68;;;;;;;1.48;59.11;101537.44;5051748;28;20052;-65
2022/03/12 10:21:56;;;;;;;22.85;12.30;;;;;;;1.69;59.72;101549.03;5051918;28;20087;-69
2022/03/12 10:24:22;;;;;;;11.57;8.00;;;;;;;1.35;59.89;101508.63;5050200;28;20033;-68
2022/03/12 10:26:48;;;;;;;14.60;9.77;;;;;;;2.05;60.32;101503.38;5033328;28;20120;-69
2022/03/12 10:29:14;;;;;;;12.73;8.98;;;;;;;2.22;59.12;101527.31;5030286;28;20484;-68
2022/03/12 10:31:40;;;;;;;12.32;8.73;;;;;;;2.03;57.73;101522.53;5031079;28;20083;-68
2022/03/12 10:34:23;;;;;;;10.25;7.03;;;;;;;1.42;58.86;101515.56;5030263;28;20030;-67
2022/03/12 10:36:50;;;;;;;10.32;7.05;;;;;;;1.86;58.05;101483.56;5031231;28;20036;-68
2022/03/12 10:39:17;;;;;;;10.65;6.78;;;;;;;1.71;58.93;101508.97;5029455;28;20117;-69
2022/03/12 10:41:43;;;;;;;9.73;6.78;;;;;;;2.19;57.53;101513.03;5023206;28;20069;-67
2022/03/12 10:44:11;;;;;;;10.57;7.63;;;;;;;1.85;58.99;101489.34;5030899;28;20061;-66
2022/03/12 10:46:40;;;;;;;13.63;9.23;;;;;;;2.38;60.27;101516.91;5031650;28;20029;-69
2022/03/12 10:49:07;;;;;;;21.02;10.05;;;;;;;3.39;67.06;101509.72;5031112;28;20022;-65
2022/03/12 10:51:36;;;;;;;15.20;8.23;;;;;;;2.78;67.27;101489.66;5048185;28;20499;-65
2022/03/12 10:54:07;;;;;;;9.73;7.57;;;;;;;2.30;61.29;101514.19;5048534;28;20502;-68
2022/03/12 10:56:47;;;;;;;12.13;7.30;;;;;;;2.25;61.35;101519.88;5018772;28;20057;-69
2022/03/12 10:59:19;;;;;;;10.48;7.50;;;;;;;2.53;59.57;101514.88;5037465;28;20448;-68
2022/03/12 11:02:00;;;;;;;13.63;8.25;;;;;;;2.55;59.27;101508.25;5030493;28;20033;-67
2022/03/12 11:04:30;;;;;;;12.32;8.00;;;;;;;2.84;56.30;101494.00;5031254;28;20037;-67
2022/03/12 11:07:00;;;;;;;12.05;6.63;;;;;;;1.94;56.56;101530.59;5031324;28;20140;-69
2022/03/12 11:09:37;;;;;;;10.32;7.50;;;;;;;2.51;58.82;101526.53;5030544;28;20048;-69
2022/03/12 11:12:29;;;;;;;11.57;7.22;;;;;;;3.31;58.00;101509.53;5013384;28;20107;-68
2022/03/12 11:15:05;;;;;;;10.38;6.70;;;;;;;4.43;54.97;101509.69;5030874;28;20029;-66